| time (UTC) | temp C | wind direction | speed KPH | gust KPH | rain 1hr cm | rain 24hr cm | rain mn cm | humidity % | barometer mb |
| 20260510052012 | 13 | 251 | 3.2 | 4.8 | 0.00 | 0.00 | 0.00 | 95 | |
| 20260510051511 | 13 | 251 | 3.2 | 4.8 | 0.00 | 0.00 | 0.00 | 95 | |
| 20260510051010 | 13 | 251 | 3.2 | 4.8 | 0.00 | 0.00 | 0.00 | 95 | |
| 20260510050510 | 13 | 251 | 3.2 | 4.8 | 0.00 | 0.00 | 0.00 | 95 | |
| 20260510050009 | 13 | 251 | 3.2 | 4.8 | 0.00 | 0.00 | 0.00 | 95 | |
| 20260510045508 | 13 | 251 | 3.2 | 4.8 | 0.00 | 0.00 | 0.00 | 95 | |
| 20260510045008 | 13 | 251 | 3.2 | 4.8 | 0.00 | 0.00 | 0.00 | 95 | |
| 20260510044507 | 13 | 251 | 3.2 | 4.8 | 0.00 | 0.00 | 0.00 | 95 | |
| 20260510044007 | 13 | 251 | 3.2 | 4.8 | 0.00 | 0.00 | 0.00 | 95 | |
| 20260510043506 | 13 | 251 | 3.2 | 4.8 | 0.00 | 0.00 | 0.00 | 95 | |
| 20260510043005 | 13 | 251 | 3.2 | 4.8 | 0.00 | 0.00 | 0.00 | 95 | |
| 20260510042505 | 13 | 251 | 3.2 | 4.8 | 0.00 | 0.00 | 0.00 | 95 | |
| 20260510042004 | 13 | 251 | 3.2 | 4.8 | 0.00 | 0.00 | 0.00 | 95 | |
| 20260510041503 | 13 | 251 | 3.2 | 4.8 | 0.00 | 0.00 | 0.00 | 95 | |
| 20260510041003 | 13 | 251 | 3.2 | 4.8 | 0.00 | 0.00 | 0.00 | 95 | |
| 20260510040500 | 13 | 251 | 3.2 | 4.8 | 0.00 | 0.00 | 0.00 | 95 | |
| 20260510040000 | 13 | 251 | 3.2 | 4.8 | 0.00 | 0.00 | 0.00 | 95 | |
| 20260510035459 | 13 | 251 | 3.2 | 4.8 | 0.00 | 0.00 | 0.00 | 95 | |
| 20260510034958 | 13 | 251 | 3.2 | 4.8 | 0.00 | 0.00 | 0.00 | 95 | |
| 20260510034458 | 13 | 251 | 3.2 | 4.8 | 0.00 | 0.00 | 0.00 | 95 | |
| 20260510033957 | 13 | 251 | 3.2 | 4.8 | 0.00 | 0.00 | 0.00 | 95 | |
| 20260510033456 | 13 | 251 | 3.2 | 4.8 | 0.00 | 0.00 | 0.00 | 95 | |
| 20260510032956 | 13 | 251 | 3.2 | 4.8 | 0.00 | 0.00 | 0.00 | 95 | |
| 20260510032455 | 13 | 251 | 3.2 | 4.8 | 0.00 | 0.00 | 0.00 | 95 | |
| 20260510031954 | 13 | 206 | 3.2 | 3.2 | 0.00 | 0.00 | 0.00 | 95 | |
| 20260510031454 | 13 | 249 | 3.2 | 4.8 | 0.00 | 0.00 | 0.00 | 95 | |
| 20260510030953 | 13 | 270 | 4.8 | 4.8 | 0.00 | 0.00 | 0.00 | 95 | |
| 20260510030452 | 13 | 266 | 6.4 | 6.4 | 0.00 | 0.00 | 0.00 | 95 | |
| 20260510025951 | 14 | 251 | 6.4 | 9.7 | 0.00 | 0.00 | 0.00 | 94 | |
| 20260510025451 | 14 | 264 | 8.0 | 8.0 | 0.00 | 0.00 | 0.00 | 92 | |
| 20260510024950 | 14 | 271 | 8.0 | 9.7 | 0.00 | 0.00 | 0.00 | 92 | |
| 20260510024450 | 14 | 263 | 6.4 | 8.0 | 0.00 | 0.00 | 0.00 | 93 | |
| 20260510023949 | 14 | 250 | 3.2 | 4.8 | 0.00 | 0.00 | 0.00 | 93 | |
| 20260510023448 | 14 | 282 | 4.8 | 8.0 | 0.00 | 0.00 | 0.00 | 94 | |
| 20260510022948 | 13 | 350 | 3.2 | 4.8 | 0.00 | 0.00 | 0.00 | 96 | |
| 20260510022447 | 13 | 350 | 3.2 | 4.8 | 0.00 | 0.00 | 0.00 | 96 | |
| 20260510021946 | 13 | 350 | 3.2 | 4.8 | 0.00 | 0.00 | 0.00 | 96 | |
| 20260510021446 | 13 | 350 | 3.2 | 4.8 | 0.00 | 0.00 | 0.00 | 96 | |
| 20260510020945 | 13 | 350 | 3.2 | 4.8 | 0.00 | 0.00 | 0.00 | 96 | |
| 20260510020444 | 13 | 350 | 3.2 | 4.8 | 0.00 | 0.00 | 0.00 | 96 | |
| 20260510015944 | 13 | 350 | 3.2 | 4.8 | 0.00 | 0.00 | 0.00 | 96 | |
| 20260510015443 | 13 | 350 | 3.2 | 4.8 | 0.00 | 0.00 | 0.00 | 96 | |
| 20260510014942 | 13 | 350 | 3.2 | 4.8 | 0.00 | 0.00 | 0.00 | 96 | |
| 20260510014441 | 13 | 350 | 3.2 | 4.8 | 0.00 | 0.00 | 0.00 | 96 | |
| 20260510013941 | 13 | 350 | 3.2 | 4.8 | 0.00 | 0.00 | 0.00 | 96 | |
| 20260510013440 | 13 | 350 | 3.2 | 4.8 | 0.00 | 0.00 | 0.00 | 96 | |
| 20260510012939 | 13 | 350 | 3.2 | 4.8 | 0.00 | 0.00 | 0.00 | 96 | |
| 20260510012439 | 13 | 350 | 3.2 | 4.8 | 0.00 | 0.00 | 0.00 | 96 | |
| 20260510011938 | 13 | 350 | 3.2 | 4.8 | 0.00 | 0.00 | 0.00 | 96 | |
| 20260510011437 | 13 | 350 | 3.2 | 4.8 | 0.00 | 0.00 | 0.00 | 96 | |
| 20260510010436 | 13 | 350 | 3.2 | 4.8 | 0.00 | 0.00 | 0.00 | 96 | |
| 20260510005935 | 13 | 350 | 3.2 | 4.8 | 0.00 | 0.00 | 0.00 | 96 | |
| 20260510005435 | 13 | 350 | 3.2 | 4.8 | 0.00 | 0.00 | 0.00 | 96 | |
| 20260510004934 | 13 | 350 | 3.2 | 4.8 | 0.00 | 0.00 | 0.00 | 96 | |
| 20260510004433 | 13 | 350 | 3.2 | 4.8 | 0.00 | 0.00 | 0.00 | 96 | |
| 20260510003933 | 13 | 350 | 3.2 | 4.8 | 0.00 | 0.00 | 0.00 | 96 | |
| 20260510003432 | 13 | 350 | 3.2 | 4.8 | 0.00 | 0.00 | 0.00 | 96 | |
| 20260510002931 | 13 | 350 | 3.2 | 4.8 | 0.00 | 0.00 | 0.00 | 96 | |
| 20260510002430 | 13 | 350 | 3.2 | 4.8 | 0.00 | 0.00 | 0.00 | 96 | |
| 20260510001930 | 13 | 340 | 3.2 | 3.2 | 0.00 | 0.00 | 0.00 | 96 | |
| 20260510001429 | 13 | 270 | 4.8 | 3.2 | 0.00 | 0.00 | 0.00 | 96 | |
| 20260510000928 | 13 | 253 | 3.2 | 4.8 | 0.00 | 0.00 | 0.00 | 96 | |
| 20260510000428 | 13 | 322 | 4.8 | 6.4 | 0.00 | 0.00 | 0.00 | 96 | |
| 20260509235927 | 13 | 269 | 3.2 | 6.4 | 0.00 | 0.00 | 0.00 | 96 | |
| 20260509235426 | 13 | 263 | 6.4 | 8.0 | 0.00 | 0.00 | 0.00 | 96 | |
| 20260509234926 | 13 | 271 | 6.4 | 6.4 | 0.00 | 0.00 | 0.00 | 96 | |
| 20260509234425 | 13 | 273 | 6.4 | 6.4 | 0.00 | 0.00 | 0.00 | 95 | |
| 20260509233924 | 14 | 258 | 6.4 | 9.7 | 0.00 | 0.00 | 0.00 | 95 | |
| 20260509233423 | 14 | 181 | 3.2 | 4.8 | 0.00 | 0.00 | 0.00 | 94 | |
| 20260509232923 | 14 | 246 | 4.8 | 6.4 | 0.00 | 0.00 | 0.00 | 94 | |
| 20260509232422 | 14 | 347 | 3.2 | 3.2 | 0.00 | 0.00 | 0.00 | 94 | |
| 20260509231922 | 14 | 287 | 6.4 | 6.4 | 0.00 | 0.00 | 0.00 | 93 | |
| 20260509231421 | 14 | 270 | 8.0 | 8.0 | 0.00 | 0.00 | 0.00 | 92 | |
| 20260509230920 | 14 | 230 | 3.2 | 3.2 | 0.00 | 0.00 | 0.00 | 92 | |
| 20260509230419 | 14 | 300 | 4.8 | 4.8 | 0.00 | 0.00 | 0.00 | 92 | |
| 20260509225919 | 14 | 307 | 3.2 | 3.2 | 0.00 | 0.00 | 0.00 | 92 | |
| 20260509225418 | 14 | 259 | 4.8 | 3.2 | 0.00 | 0.00 | 0.00 | 93 | |
| 20260509224918 | 14 | 250 | 4.8 | 8.0 | 0.00 | 0.00 | 0.00 | 93 | |
| 20260509224417 | 14 | 249 | 4.8 | 6.4 | 0.00 | 0.00 | 0.00 | 93 | |
| 20260509223916 | 14 | 269 | 4.8 | 8.0 | 0.00 | 0.00 | 0.00 | 94 | |
| 20260509223416 | 14 | 246 | 6.4 | 8.0 | 0.00 | 0.00 | 0.00 | 94 | |
| 20260509222915 | 14 | 256 | 4.8 | 6.4 | 0.00 | 0.00 | 0.00 | 94 | |
| 20260509222414 | 13 | 283 | 3.2 | 3.2 | 0.00 | 0.00 | 0.00 | 95 | |
| 20260509221914 | 13 | 238 | 6.4 | 6.4 | 0.00 | 0.00 | 0.00 | 95 | |
| 20260509221413 | 13 | 320 | 3.2 | 3.2 | 0.00 | 0.00 | 0.00 | 95 | |
| 20260509220913 | 13 | 261 | 3.2 | 4.8 | 0.00 | 0.00 | 0.00 | 95 | |
| 20260509220412 | 13 | 228 | 3.2 | 6.4 | 0.00 | 0.00 | 0.00 | 96 | |
| 20260509215911 | 13 | 251 | 4.8 | 6.4 | 0.00 | 0.00 | 0.00 | 97 | |
| 20260509215410 | 13 | 263 | 4.8 | 8.0 | 0.00 | 0.00 | 0.00 | 97 | |
| 20260509214910 | 13 | 313 | 3.2 | 6.4 | 0.00 | 0.00 | 0.00 | 97 | |
| 20260509214409 | 13 | 270 | 3.2 | 4.8 | 0.00 | 0.00 | 0.00 | 97 | |
| 20260509213908 | 13 | 239 | 6.4 | 6.4 | 0.00 | 0.00 | 0.00 | 97 | |
| 20260509213408 | 13 | 240 | 4.8 | 4.8 | 0.00 | 0.00 | 0.00 | 96 | |
| 20260509212907 | 13 | 230 | 3.2 | 3.2 | 0.00 | 0.00 | 0.00 | 96 | |
| 20260509212406 | 13 | 254 | 4.8 | 3.2 | 0.00 | 0.00 | 0.00 | 96 | |
| 20260509211906 | 13 | 245 | 3.2 | 4.8 | 0.00 | 0.00 | 0.00 | 95 | |
| 20260509211405 | 13 | 190 | 1.6 | 3.2 | 0.00 | 0.00 | 0.00 | 95 | |
| 20260509210905 | 13 | 196 | 1.6 | 1.6 | 0.00 | 0.00 | 0.00 | 94 | |
| 20260509210404 | 13 | 198 | 3.2 | 3.2 | 0.00 | 0.00 | 0.00 | 94 | |
| 20260509205903 | 14 | 157 | 1.6 | 1.6 | 0.00 | 0.00 | 0.00 | 93 | |
| 20260509205403 | 14 | 194 | 1.6 | 3.2 | 0.00 | 0.00 | 0.00 | 92 | |
| 20260509204902 | 14 | 175 | 1.6 | 1.6 | 0.00 | 0.00 | 0.00 | 92 | |
| 20260509204401 | 14 | 177 | 0.0 | 1.6 | 0.00 | 0.00 | 0.00 | 91 | |
| 20260509203901 | 14 | 175 | 0.0 | 0.0 | 0.00 | 0.00 | 0.00 | 91 | |
| 20260509203400 | 14 | 176 | 1.6 | 1.6 | 0.00 | 0.00 | 0.00 | 91 | |
| 20260509202859 | 14 | 175 | 1.6 | 1.6 | 0.00 | 0.00 | 0.00 | 90 | |
| 20260509202359 | 14 | 172 | 1.6 | 1.6 | 0.00 | 0.00 | 0.00 | 90 | |
| 20260509201858 | 14 | 163 | 1.6 | 1.6 | 0.00 | 0.00 | 0.00 | 89 | |
| 20260509201358 | 14 | 152 | 1.6 | 1.6 | 0.00 | 0.00 | 0.00 | 87 | |
| 20260509200857 | 14 | 123 | 0.0 | 0.0 | 0.00 | 0.00 | 0.00 | 87 | |
| 20260509200356 | 14 | 132 | 0.0 | 0.0 | 0.00 | 0.00 | 0.00 | 87 | |
| 20260509195856 | 14 | 132 | 0.0 | 0.0 | 0.00 | 0.00 | 0.00 | 86 | |
| 20260509195355 | 14 | 153 | 1.6 | 1.6 | 0.00 | 0.00 | 0.00 | 86 | |
| 20260509194854 | 15 | 98 | 0.0 | 0.0 | 0.00 | 0.00 | 0.00 | 85 | |
| 20260509194354 | 15 | 98 | 0.0 | 0.0 | 0.00 | 0.00 | 0.00 | 85 | |
| 20260509193853 | 15 | 97 | 0.0 | 0.0 | 0.00 | 0.00 | 0.00 | 86 | |
| 20260509193352 | 15 | 98 | 0.0 | 0.0 | 0.00 | 0.00 | 0.00 | 85 | |
| 20260509192851 | 15 | 98 | 0.0 | 0.0 | 0.00 | 0.00 | 0.00 | 85 | |
| 20260509192351 | 15 | 97 | 0.0 | 0.0 | 0.00 | 0.00 | 0.00 | 85 | |
| 20260509191850 | 15 | 110 | 0.0 | 0.0 | 0.00 | 0.00 | 0.00 | 85 | |
| 20260509191349 | 15 | 63 | 1.6 | 1.6 | 0.00 | 0.00 | 0.00 | 85 | |
| 20260509190849 | 15 | 93 | 1.6 | 1.6 | 0.00 | 0.00 | 0.00 | 85 | |
| 20260509190348 | 15 | 92 | 0.0 | 1.6 | 0.00 | 0.00 | 0.00 | 85 | |
| 20260509185847 | 15 | 114 | 1.6 | 1.6 | 0.00 | 0.00 | 0.00 | 85 | |
| 20260509185347 | 15 | 110 | 0.0 | 0.0 | 0.00 | 0.00 | 0.00 | 85 | |
| 20260509184846 | 15 | 71 | 1.6 | 1.6 | 0.00 | 0.00 | 0.00 | 85 | |
| 20260509184345 | 15 | 43 | 0.0 | 0.0 | 0.00 | 0.00 | 0.00 | 85 | |
| 20260509183844 | 15 | 90 | 1.6 | 3.2 | 0.00 | 0.00 | 0.00 | 85 | |
| 20260509183344 | 15 | 71 | 1.6 | 1.6 | 0.00 | 0.00 | 0.00 | 85 | |
| 20260509182843 | 15 | 12 | 1.6 | 3.2 | 0.00 | 0.00 | 0.00 | 86 | |
| 20260509182342 | 15 | 88 | 1.6 | 3.2 | 0.00 | 0.00 | 0.00 | 85 | |
| 20260509181341 | 15 | 97 | 1.6 | 3.2 | 0.00 | 0.00 | 0.00 | 86 | |
| 20260509180840 | 15 | 136 | 0.0 | 0.0 | 0.00 | 0.00 | 0.00 | 86 | |
| 20260509180339 | 15 | 12 | 1.6 | 1.6 | 0.00 | 0.00 | 0.00 | 86 | |
| 20260509175838 | 15 | 101 | 1.6 | 3.2 | 0.00 | 0.00 | 0.00 | 85 | |
| 20260509175337 | 15 | 91 | 0.0 | 1.6 | 0.00 | 0.00 | 0.00 | 85 | |
| 20260509174837 | 15 | 20 | 0.0 | 1.6 | 0.00 | 0.00 | 0.00 | 85 | |
| 20260509174336 | 15 | 43 | 1.6 | 4.8 | 0.00 | 0.00 | 0.00 | 85 | |
| 20260509173835 | 15 | 169 | 1.6 | 3.2 | 0.00 | 0.00 | 0.00 | 85 | |
| 20260509173334 | 15 | 45 | 3.2 | 3.2 | 0.00 | 0.00 | 0.00 | 85 | |
| 20260509172834 | 15 | 2 | 3.2 | 3.2 | 0.00 | 0.00 | 0.00 | 85 | |
| 20260509172332 | 15 | 55 | 1.6 | 3.2 | 0.00 | 0.00 | 0.00 | 84 | |
| 20260509171832 | 15 | 17 | 1.6 | 4.8 | 0.00 | 0.00 | 0.00 | 84 | |
| 20260509171331 | 15 | 18 | 1.6 | 3.2 | 0.00 | 0.00 | 0.00 | 84 | |
| 20260509170830 | 15 | 63 | 3.2 | 3.2 | 0.00 | 0.00 | 0.00 | 83 | |
| 20260509170330 | 15 | 8 | 3.2 | 3.2 | 0.00 | 0.00 | 0.00 | 82 | |
| 20260509165829 | 15 | 44 | 1.6 | 3.2 | 0.00 | 0.00 | 0.00 | 82 | |
| 20260509165328 | 15 | 74 | 3.2 | 3.2 | 0.00 | 0.00 | 0.00 | 83 | |
| 20260509164828 | 15 | 75 | 3.2 | 3.2 | 0.00 | 0.00 | 0.00 | 82 | |
| 20260509164327 | 15 | 56 | 1.6 | 1.6 | 0.00 | 0.00 | 0.00 | 83 | |
| 20260509163826 | 15 | 90 | 1.6 | 1.6 | 0.00 | 0.00 | 0.00 | 82 | |
| 20260509163326 | 15 | 77 | 3.2 | 3.2 | 0.00 | 0.00 | 0.00 | 83 | |
| 20260509162825 | 15 | 54 | 1.6 | 3.2 | 0.00 | 0.00 | 0.00 | 83 | |
| 20260509162324 | 15 | 84 | 1.6 | 1.6 | 0.00 | 0.00 | 0.00 | 82 | |
| 20260509161824 | 15 | 61 | 1.6 | 1.6 | 0.00 | 0.00 | 0.00 | 82 | |
| 20260509161323 | 15 | 10 | 1.6 | 3.2 | 0.00 | 0.00 | 0.00 | 81 | |
| 20260509160822 | 15 | 79 | 1.6 | 3.2 | 0.00 | 0.00 | 0.00 | 81 | |
| 20260509160322 | 15 | 94 | 1.6 | 1.6 | 0.00 | 0.00 | 0.00 | 81 | |
| 20260509155821 | 15 | 72 | 1.6 | 3.2 | 0.00 | 0.00 | 0.00 | 81 | |
| 20260509155320 | 15 | 70 | 1.6 | 3.2 | 0.00 | 0.00 | 0.00 | 80 | |
| 20260509154820 | 16 | 64 | 1.6 | 1.6 | 0.00 | 0.00 | 0.00 | 80 | |
| 20260509154319 | 16 | 90 | 3.2 | 3.2 | 0.00 | 0.00 | 0.00 | 80 | |
| 20260509153818 | 15 | 46 | 1.6 | 3.2 | 0.00 | 0.00 | 0.00 | 80 | |
| 20260509153318 | 15 | 25 | 3.2 | 4.8 | 0.00 | 0.00 | 0.00 | 81 | |
| 20260509152817 | 16 | 31 | 1.6 | 1.6 | 0.00 | 0.00 | 0.00 | 79 | |
| 20260509152316 | 16 | 109 | 1.6 | 1.6 | 0.00 | 0.00 | 0.00 | 78 | |
| 20260509151816 | 16 | 136 | 1.6 | 1.6 | 0.00 | 0.00 | 0.00 | 77 | |
| 20260509151315 | 16 | 101 | 0.0 | 1.6 | 0.00 | 0.00 | 0.00 | 77 | |
| 20260509150814 | 16 | 149 | 1.6 | 1.6 | 0.00 | 0.00 | 0.00 | 77 | |
| 20260509150314 | 16 | 147 | 1.6 | 0.0 | 0.00 | 0.00 | 0.00 | 79 | |
| 20260509145813 | 16 | 170 | 0.0 | 3.2 | 0.00 | 0.00 | 0.00 | 80 | |
| 20260509145312 | 15 | 87 | 3.2 | 1.6 | 0.00 | 0.00 | 0.00 | 82 | |
| 20260509144811 | 15 | 79 | 1.6 | 4.8 | 0.00 | 0.00 | 0.00 | 83 | |
| 20260509144311 | 15 | 167 | 1.6 | 1.6 | 0.00 | 0.00 | 0.00 | 83 | |
| 20260509143810 | 15 | 47 | 3.2 | 4.8 | 0.00 | 0.00 | 0.00 | 84 | |
| 20260509143309 | 15 | 143 | 1.6 | 3.2 | 0.00 | 0.00 | 0.00 | 84 | |
| 20260509142809 | 16 | 25 | 1.6 | 3.2 | 0.00 | 0.00 | 0.00 | 84 | |
| 20260509142308 | 16 | 356 | 3.2 | 3.2 | 0.00 | 0.00 | 0.00 | 83 | |
| 20260509141807 | 16 | 173 | 0.0 | 1.6 | 0.00 | 0.00 | 0.00 | 83 | |
| 20260509141307 | 16 | 166 | 1.6 | 1.6 | 0.00 | 0.00 | 0.00 | 82 | |
| 20260509140806 | 16 | 107 | 1.6 | 1.6 | 0.00 | 0.00 | 0.00 | 83 | |
| 20260509140305 | 16 | 145 | 1.6 | 3.2 | 0.00 | 0.00 | 0.00 | 82 | |
| 20260509135805 | 16 | 143 | 1.6 | 1.6 | 0.00 | 0.00 | 0.00 | 82 | |
| 20260509135306 | 16 | 202 | 3.2 | 3.2 | 0.00 | 0.00 | 0.00 | 81 | |
| 20260509134803 | 16 | 134 | 1.6 | 3.2 | 0.00 | 0.00 | 0.00 | 81 | |
| 20260509134303 | 17 | 158 | 1.6 | 1.6 | 0.00 | 0.00 | 0.00 | 79 | |
| 20260509133802 | 17 | 180 | 3.2 | 1.6 | 0.00 | 0.00 | 0.00 | 78 | |
| 20260509133301 | 17 | 122 | 1.6 | 6.4 | 0.00 | 0.00 | 0.00 | 78 | |
| 20260509132801 | 17 | 195 | 1.6 | 3.2 | 0.00 | 0.00 | 0.00 | 77 | |
| 20260509132300 | 17 | 129 | 1.6 | 3.2 | 0.00 | 0.00 | 0.00 | 76 | |
| 20260509131759 | 17 | 180 | 1.6 | 3.2 | 0.00 | 0.00 | 0.00 | 76 | |
| 20260509131259 | 17 | 196 | 3.2 | 8.0 | 0.00 | 0.00 | 0.00 | 76 | |
| 20260509130758 | 17 | 124 | 3.2 | 8.0 | 0.00 | 0.00 | 0.00 | 76 | |
| 20260509130257 | 18 | 161 | 6.4 | 6.4 | 0.00 | 0.00 | 0.00 | 76 | |
| 20260509125757 | 18 | 73 | 4.8 | 4.8 | 0.00 | 0.00 | 0.00 | 75 | |
| 20260509125256 | 18 | 166 | 3.2 | 3.2 | 0.00 | 0.00 | 0.00 | 74 | |
| 20260509124755 | 18 | 186 | 3.2 | 3.2 | 0.00 | 0.00 | 0.00 | 72 | |
| 20260509124255 | 19 | 82 | 1.6 | 6.4 | 0.00 | 0.00 | 0.00 | 71 | |
| 20260509123754 | 19 | 86 | 3.2 | 3.2 | 0.00 | 0.00 | 0.00 | 70 | |
| 20260509123253 | 20 | 241 | 1.6 | 4.8 | 0.00 | 0.00 | 0.00 | 68 | |
| 20260509122752 | 20 | 175 | 1.6 | 3.2 | 0.00 | 0.00 | 0.00 | 68 | |
| 20260509122252 | 19 | 157 | 3.2 | 4.8 | 0.00 | 0.00 | 0.00 | 68 | |
| 20260509121751 | 19 | 180 | 3.2 | 9.7 | 0.00 | 0.00 | 0.00 | 70 | |
| 20260509121250 | 19 | 269 | 3.2 | 4.8 | 0.00 | 0.00 | 0.00 | 68 | |
| 20260509120750 | 19 | 86 | 3.2 | 8.0 | 0.00 | 0.00 | 0.00 | 68 | |
| 20260509120249 | 19 | 118 | 1.6 | 3.2 | 0.00 | 0.00 | 0.00 | 68 | |
| 20260509115748 | 19 | 181 | 3.2 | 3.2 | 0.00 | 0.00 | 0.00 | 67 | |
| 20260509115248 | 19 | 126 | 1.6 | 1.6 | 0.00 | 0.00 | 0.00 | 68 | |
| 20260509114747 | 20 | 62 | 3.2 | 6.4 | 0.00 | 0.00 | 0.00 | 67 | |
| 20260509114246 | 20 | 106 | 1.6 | 1.6 | 0.00 | 0.00 | 0.00 | 66 | |
| 20260509113746 | 20 | 139 | 4.8 | 6.4 | 0.00 | 0.00 | 0.00 | 66 | |
| 20260509113245 | 19 | 126 | 4.8 | 4.8 | 0.00 | 0.00 | 0.00 | 67 | |
| 20260509112744 | 20 | 177 | 3.2 | 6.4 | 0.00 | 0.00 | 0.00 | 65 | |
| 20260509112243 | 20 | 117 | 1.6 | 6.4 | 0.00 | 0.00 | 0.00 | 65 | |
| 20260509111743 | 19 | 173 | 3.2 | 4.8 | 0.00 | 0.00 | 0.00 | 68 | |
| 20260509111242 | 19 | 42 | 1.6 | 3.2 | 0.00 | 0.00 | 0.00 | 68 | |
| 20260509110741 | 18 | 186 | 3.2 | 1.6 | 0.00 | 0.00 | 0.00 | 68 | |
| 20260509110241 | 19 | 207 | 1.6 | 3.2 | 0.00 | 0.00 | 0.00 | 69 | |
| 20260509105740 | 18 | 160 | 3.2 | 4.8 | 0.00 | 0.00 | 0.00 | 71 | |
| 20260509105239 | 18 | 191 | 6.4 | 8.0 | 0.00 | 0.00 | 0.00 | 69 | |
| 20260509104738 | 18 | 132 | 4.8 | 8.0 | 0.00 | 0.00 | 0.00 | 69 | |
| 20260509104238 | 18 | 185 | 4.8 | 6.4 | 0.00 | 0.00 | 0.00 | 67 | |
| 20260509103737 | 19 | 38 | 1.6 | 3.2 | 0.00 | 0.00 | 0.00 | 67 | |
| 20260509103236 | 18 | 103 | 4.8 | 3.2 | 0.00 | 0.00 | 0.00 | 66 | |
| 20260509102736 | 18 | 207 | 6.4 | 8.0 | 0.00 | 0.00 | 0.00 | 68 | |
| 20260509102235 | 18 | 195 | 6.4 | 8.0 | 0.00 | 0.00 | 0.00 | 67 | |
| 20260509101734 | 18 | 187 | 4.8 | 9.7 | 0.00 | 0.00 | 0.00 | 67 | |
| 20260509101233 | 18 | 133 | 8.0 | 8.0 | 0.00 | 0.00 | 0.00 | 65 | |
| 20260509100733 | 18 | 184 | 4.8 | 8.0 | 0.00 | 0.00 | 0.00 | 66 | |
| 20260509100232 | 19 | 165 | 6.4 | 9.7 | 0.00 | 0.00 | 0.00 | 65 | |
| 20260509095731 | 18 | 176 | 4.8 | 6.4 | 0.00 | 0.00 | 0.00 | 66 | |
| 20260509095230 | 17 | 160 | 6.4 | 8.0 | 0.00 | 0.00 | 0.00 | 66 | |
| 20260509094730 | 18 | 181 | 8.0 | 9.7 | 0.00 | 0.00 | 0.00 | 66 | |
| 20260509094229 | 18 | 181 | 8.0 | 8.0 | 0.00 | 0.00 | 0.00 | 66 | |
| 20260509093729 | 18 | 185 | 4.8 | 6.4 | 0.00 | 0.00 | 0.00 | 66 | |
| 20260509093228 | 18 | 201 | 1.6 | 4.8 | 0.00 | 0.00 | 0.00 | 66 | |
| 20260509092727 | 18 | 220 | 6.4 | 6.4 | 0.00 | 0.00 | 0.00 | 69 | |
| 20260509092227 | 17 | 208 | 6.4 | 9.7 | 0.00 | 0.00 | 0.00 | 69 | |
| 20260509091726 | 17 | 169 | 8.0 | 11.3 | 0.00 | 0.00 | 0.00 | 67 | |
| 20260509091225 | 18 | 191 | 3.2 | 6.4 | 0.00 | 0.00 | 0.00 | 68 | |
| 20260509090725 | 18 | 86 | 4.8 | 4.8 | 0.00 | 0.00 | 0.00 | 68 | |
| 20260509090224 | 17 | 173 | 4.8 | 6.4 | 0.00 | 0.00 | 0.00 | 71 | |
| 20260509085723 | 17 | 195 | 3.2 | 8.0 | 0.00 | 0.00 | 0.00 | 72 | |
| 20260509085223 | 17 | 167 | 4.8 | 3.2 | 0.00 | 0.00 | 0.00 | 72 | |
| 20260509084722 | 17 | 178 | 1.6 | 3.2 | 0.00 | 0.00 | 0.00 | 71 | |
| 20260509084222 | 17 | 137 | 1.6 | 1.6 | 0.00 | 0.00 | 0.00 | 72 | |
| 20260509083721 | 16 | 148 | 1.6 | 3.2 | 0.00 | 0.00 | 0.00 | 75 | |
| 20260509083220 | 16 | 90 | 3.2 | 4.8 | 0.00 | 0.00 | 0.00 | 74 | |
| 20260509082719 | 16 | 140 | 3.2 | 6.4 | 0.00 | 0.00 | 0.00 | 76 | |
| 20260509082219 | 16 | 104 | 0.0 | 0.0 | 0.00 | 0.00 | 0.00 | 77 | |
| 20260509081718 | 15 | 172 | 3.2 | 3.2 | 0.00 | 0.00 | 0.00 | 78 | |
| 20260509081217 | 15 | 95 | 1.6 | 1.6 | 0.00 | 0.00 | 0.00 | 78 | |
| 20260509080717 | 15 | 127 | 0.0 | 1.6 | 0.00 | 0.00 | 0.00 | 80 | |
| 20260509080216 | 15 | 167 | 3.2 | 3.2 | 0.00 | 0.00 | 0.00 | 81 | |
| 20260509075715 | 15 | 150 | 1.6 | 1.6 | 0.00 | 0.00 | 0.00 | 81 | |
| 20260509075214 | 15 | 168 | 1.6 | 0.0 | 0.00 | 0.00 | 0.00 | 81 | |
| 20260509074714 | 15 | 109 | 1.6 | 1.6 | 0.00 | 0.00 | 0.00 | 82 | |
| 20260509074213 | 15 | 142 | 1.6 | 3.2 | 0.00 | 0.00 | 0.00 | 82 | |
| 20260509073713 | 15 | 145 | 1.6 | 3.2 | 0.00 | 0.00 | 0.00 | 81 | |
| 20260509073212 | 15 | 166 | 4.8 | 6.4 | 0.00 | 0.00 | 0.00 | 80 | |
| 20260509072711 | 15 | 143 | 1.6 | 1.6 | 0.00 | 0.00 | 0.00 | 80 | |
| 20260509072211 | 15 | 160 | 4.8 | 4.8 | 0.00 | 0.00 | 0.00 | 80 | |
| 20260509071710 | 15 | 182 | 3.2 | 4.8 | 0.00 | 0.00 | 0.00 | 79 | |
| 20260509071209 | 16 | 153 | 1.6 | 1.6 | 0.00 | 0.00 | 0.00 | 79 | |
| 20260509070709 | 15 | 66 | 4.8 | 4.8 | 0.00 | 0.00 | 0.00 | 78 | |
| 20260509070208 | 16 | 105 | 1.6 | 3.2 | 0.00 | 0.00 | 0.00 | 78 | |
| 20260509065707 | 16 | 86 | 1.6 | 3.2 | 0.00 | 0.00 | 0.00 | 78 | |
| 20260509065206 | 15 | 144 | 1.6 | 3.2 | 0.00 | 0.00 | 0.00 | 77 | |
| 20260509064706 | 16 | 139 | 0.0 | 0.0 | 0.00 | 0.00 | 0.00 | 77 | |
| 20260509064200 | 15 | 175 | 4.8 | 6.4 | 0.00 | 0.00 | 0.00 | 78 | |
| 20260509063659 | 15 | 173 | 4.8 | 8.0 | 0.00 | 0.00 | 0.00 | 76 | |
| 20260509063159 | 15 | 125 | 1.6 | 3.2 | 0.00 | 0.00 | 0.00 | 76 | |
| 20260509062658 | 15 | 139 | 6.4 | 8.0 | 0.00 | 0.00 | 0.00 | 77 | |
| 20260509062157 | 16 | 179 | 1.6 | 3.2 | 0.00 | 0.00 | 0.00 | 75 | |
| 20260509061657 | 16 | 181 | 4.8 | 8.0 | 0.00 | 0.00 | 0.00 | 73 | |
| 20260509061156 | 16 | 117 | 3.2 | 4.8 | 0.00 | 0.00 | 0.00 | 74 | |
| 20260509060655 | 16 | 90 | 3.2 | 6.4 | 0.00 | 0.00 | 0.00 | 74 | |
| 20260509060155 | 16 | 154 | 6.4 | 8.0 | 0.00 | 0.00 | 0.00 | 73 | |
| 20260509055654 | 16 | 117 | 3.2 | 4.8 | 0.00 | 0.00 | 0.00 | 73 | |
| 20260509055153 | 16 | 180 | 6.4 | 8.0 | 0.00 | 0.00 | 0.00 | 74 | |
| 20260509054645 | 16 | 147 | 0.0 | 0.0 | 0.00 | 0.00 | 0.00 | 76 | |
| 20260509054144 | 15 | 195 | 3.2 | 3.2 | 0.00 | 0.00 | 0.00 | 77 | |
| 20260509053644 | 15 | 140 | 0.0 | 0.0 | 0.00 | 0.00 | 0.00 | 76 | |
| 20260509053143 | 15 | 159 | 1.6 | 1.6 | 0.00 | 0.00 | 0.00 | 80 | |
| 20260509052642 | 15 | 90 | 0.0 | 1.6 | 0.00 | 0.00 | 0.00 | 82 | |
| 20260509052142 | 15 | 147 | 1.6 | 1.6 | 0.00 | 0.00 | 0.00 | 83 |